Time;durP1;ratioP1;P1;durP2;ratioP2;P2;SDS_P1;SDS_P2;PMS_P1;PMS_P2;Temp;Humidity;BMP_temperature;BMP_pressure;BME280_temperature;BME280_humidity;BME280_pressure;Samples;Min_cycle;Max_cycle;Signal;HPM_P1;HPM_P2
2023/03/03 00:01:59;;;;;;;97.00;41.20;;;;;;;;;;5014048;28;20045;-88
2023/03/03 00:04:26;;;;;;;93.50;41.20;;;;;;;;;;5014615;28;20457;-87
2023/03/03 00:06:53;;;;;;;93.03;39.33;;;;;;;;;;5015504;28;20050;-87
2023/03/03 00:09:20;;;;;;;89.63;39.22;;;;;;;;;;5014572;28;20054;-87
2023/03/03 00:11:53;;;;;;;91.28;39.95;;;;;;;;;;5014270;28;20057;-87
2023/03/03 00:14:31;;;;;;;100.03;40.70;;;;;;;;;;5014441;28;20064;-87
2023/03/03 00:17:00;;;;;;;103.55;43.22;;;;;;;;;;5014534;28;20050;-87
2023/03/03 00:19:36;;;;;;;97.75;40.92;;;;;;;;;;5014488;28;20466;-87
2023/03/03 00:22:11;;;;;;;90.68;38.72;;;;;;;;;;5014326;28;20045;-87
2023/03/03 00:24:39;;;;;;;99.85;40.25;;;;;;;;;;5015232;28;20052;-87
2023/03/03 00:27:27;;;;;;;97.72;38.90;;;;;;;;;;5015340;28;20049;-87
2023/03/03 00:29:55;;;;;;;99.80;40.38;;;;;;;;;;5015235;28;20524;-87
2023/03/03 00:32:42;;;;;;;95.57;39.58;;;;;;;;;;5013894;28;20487;-87
2023/03/03 00:35:40;;;;;;;96.90;40.10;;;;;;;;;;5013974;28;20048;-87
2023/03/03 00:38:13;;;;;;;104.30;40.40;;;;;;;;;;5006553;28;20053;-87
2023/03/03 00:40:41;;;;;;;102.68;41.25;;;;;;;;;;5014999;28;20046;-87
2023/03/03 00:43:15;;;;;;;93.10;40.00;;;;;;;;;;5014022;28;20046;-87
2023/03/03 00:45:42;;;;;;;88.57;38.90;;;;;;;;;;5014724;28;20046;-87
2023/03/03 00:48:29;;;;;;;96.53;39.80;;;;;;;;;;5015198;28;20474;-86
2023/03/03 00:50:57;;;;;;;105.18;40.35;;;;;;;;;;5013715;28;20056;-87
2023/03/03 00:53:26;;;;;;;105.38;41.08;;;;;;;;;;5013854;28;20053;-87
2023/03/03 00:55:53;;;;;;;102.53;39.92;;;;;;;;;;5013631;28;20049;-87
2023/03/03 00:58:21;;;;;;;102.15;41.60;;;;;;;;;;5013782;28;20457;-87
2023/03/03 01:00:50;;;;;;;106.28;40.75;;;;;;;;;;5013541;28;20042;-87
2023/03/03 01:03:20;;;;;;;108.13;41.95;;;;;;;;;;5013646;28;20042;-87
2023/03/03 01:05:48;;;;;;;99.80;41.10;;;;;;;;;;5013400;28;20430;-87
2023/03/03 01:08:16;;;;;;;112.43;43.08;;;;;;;;;;5014644;28;20522;-87
2023/03/03 01:10:45;;;;;;;124.68;44.53;;;;;;;;;;5014409;28;20053;-87
2023/03/03 01:13:12;;;;;;;112.63;42.58;;;;;;;;;;5012447;28;20124;-87
2023/03/03 01:15:40;;;;;;;111.07;42.03;;;;;;;;;;5013355;28;20045;-87
2023/03/03 01:18:08;;;;;;;110.53;43.80;;;;;;;;;;5012995;28;20573;-87
2023/03/03 01:20:35;;;;;;;117.45;43.40;;;;;;;;;;5014283;28;20053;-86
2023/03/03 01:23:03;;;;;;;117.60;43.10;;;;;;;;;;5013257;28;20406;-87
2023/03/03 01:25:30;;;;;;;118.38;43.10;;;;;;;;;;5013167;28;20482;-87
2023/03/03 01:27:58;;;;;;;112.18;43.10;;;;;;;;;;5013127;28;20100;-87
2023/03/03 01:30:25;;;;;;;112.30;42.80;;;;;;;;;;5014123;28;20050;-86
2023/03/03 01:32:53;;;;;;;107.78;43.05;;;;;;;;;;5014204;28;20085;-87
2023/03/03 01:35:20;;;;;;;123.47;44.92;;;;;;;;;;5013013;28;20045;-87
2023/03/03 01:37:48;;;;;;;120.75;44.65;;;;;;;;;;5013219;28;20080;-87
2023/03/03 01:40:17;;;;;;;111.70;42.40;;;;;;;;;;5014001;28;20494;-87
2023/03/03 01:42:44;;;;;;;118.85;45.60;;;;;;;;;;5014125;28;20053;-87
2023/03/03 01:45:18;;;;;;;112.13;44.63;;;;;;;;;;5012935;28;20141;-86
2023/03/03 01:47:45;;;;;;;;;;;;;;;;;;5014417;28;20498;-87
2023/03/03 01:50:14;;;;;;;117.78;41.90;;;;;;;;;;5013212;28;19929;-86
2023/03/03 01:52:43;;;;;;;115.25;43.50;;;;;;;;;;5012717;28;20046;-87
2023/03/03 01:55:21;;;;;;;112.82;43.65;;;;;;;;;;5013847;28;20050;-87
2023/03/03 01:57:52;;;;;;;123.97;46.13;;;;;;;;;;5013774;28;20052;-86
2023/03/03 02:00:19;;;;;;;126.00;45.45;;;;;;;;;;5013844;28;20085;-87
2023/03/03 02:02:46;;;;;;;122.47;44.83;;;;;;;;;;5012590;28;20050;-87
2023/03/03 02:05:14;;;;;;;117.88;45.78;;;;;;;;;;5012790;28;20096;-86
2023/03/03 02:07:42;;;;;;;111.28;42.97;;;;;;;;;;5012421;28;20088;-86
2023/03/03 02:10:14;;;;;;;115.10;44.13;;;;;;;;;;5012544;28;20054;-86
2023/03/03 02:12:41;;;;;;;114.97;43.07;;;;;;;;;;5013589;28;20053;-86
2023/03/03 02:15:16;;;;;;;125.53;43.83;;;;;;;;;;5013721;28;20662;-86
2023/03/03 02:17:44;;;;;;;115.53;43.95;;;;;;;;;;5012649;28;20060;-86
2023/03/03 02:20:14;;;;;;;115.63;43.28;;;;;;;;;;5012199;28;20057;-86
2023/03/03 02:22:47;;;;;;;114.55;43.22;;;;;;;;;;5012340;28;20414;-86
2023/03/03 02:25:18;;;;;;;118.55;43.63;;;;;;;;;;5015477;28;20414;-87
2023/03/03 02:27:45;;;;;;;123.57;44.33;;;;;;;;;;5016447;28;20064;-86
2023/03/03 02:30:18;;;;;;;115.00;43.45;;;;;;;;;;5016240;28;20108;-86
2023/03/03 02:32:45;;;;;;;115.97;41.25;;;;;;;;;;5017057;28;20054;-87
2023/03/03 02:35:26;;;;;;;116.50;43.60;;;;;;;;;;5017328;28;20054;-86
2023/03/03 02:37:55;;;;;;;112.93;43.60;;;;;;;;;;5015954;28;20053;-86
2023/03/03 02:40:24;;;;;;;123.28;44.00;;;;;;;;;;5017055;28;20056;-86
2023/03/03 02:42:53;;;;;;;122.63;42.20;;;;;;;;;;5015918;28;20045;-86
2023/03/03 02:45:20;;;;;;;121.50;44.40;;;;;;;;;;5016011;28;20061;-87
2023/03/03 02:47:51;;;;;;;127.60;45.22;;;;;;;;;;5015697;28;20486;-87
2023/03/03 02:50:18;;;;;;;124.30;44.90;;;;;;;;;;5016966;28;20137;-86
2023/03/03 02:52:46;;;;;;;119.55;42.00;;;;;;;;;;5016978;28;20064;-86
2023/03/03 02:55:13;;;;;;;132.57;44.17;;;;;;;;;;5015806;28;20050;-86
2023/03/03 02:57:42;;;;;;;126.65;43.60;;;;;;;;;;5015920;28;20509;-86
2023/03/03 03:00:10;;;;;;;127.63;43.67;;;;;;;;;;5015697;28;20060;-86
2023/03/03 03:02:37;;;;;;;114.75;41.65;;;;;;;;;;5015627;28;20052;-86
2023/03/03 03:05:04;;;;;;;113.78;40.13;;;;;;;;;;5016770;28;20057;-86
2023/03/03 03:07:31;;;;;;;110.88;40.55;;;;;;;;;;5016434;28;20052;-86
2023/03/03 03:09:58;;;;;;;120.70;43.15;;;;;;;;;;5016339;28;20421;-86
2023/03/03 03:12:26;;;;;;;123.88;43.25;;;;;;;;;;5016578;28;20052;-87
2023/03/03 03:14:53;;;;;;;111.63;40.47;;;;;;;;;;5016372;28;20050;-86
2023/03/03 03:17:21;;;;;;;115.18;40.55;;;;;;;;;;5016458;28;20137;-86
2023/03/03 03:19:48;;;;;;;116.65;39.92;;;;;;;;;;5015188;28;20050;-86
2023/03/03 03:22:15;;;;;;;116.97;40.80;;;;;;;;;;5016438;28;20052;-86
2023/03/03 03:24:42;;;;;;;116.13;39.88;;;;;;;;;;5016214;28;20576;-86
2023/03/03 03:27:09;;;;;;;112.32;40.92;;;;;;;;;;5016102;28;20061;-86
2023/03/03 03:29:37;;;;;;;103.15;36.33;;;;;;;;;;5015203;28;20470;-86
2023/03/03 03:32:04;;;;;;;118.90;40.72;;;;;;;;;;5015025;28;20116;-86
2023/03/03 03:34:31;;;;;;;116.90;40.10;;;;;;;;;;5015042;28;20046;-86
2023/03/03 03:36:58;;;;;;;96.60;37.40;;;;;;;;;;5014218;28;20104;-86
2023/03/03 03:39:26;;;;;;;108.90;38.97;;;;;;;;;;5014882;28;20057;-86
2023/03/03 03:41:56;;;;;;;115.93;39.65;;;;;;;;;;5015185;28;20050;-86
2023/03/03 03:44:24;;;;;;;108.40;38.33;;;;;;;;;;5014852;28;20049;-86
2023/03/03 03:46:51;;;;;;;117.80;41.08;;;;;;;;;;5015847;28;20045;-86
2023/03/03 03:49:18;;;;;;;101.18;36.47;;;;;;;;;;5014977;28;20133;-86
2023/03/03 03:51:47;;;;;;;106.72;38.97;;;;;;;;;;5014586;28;20050;-86
2023/03/03 03:54:14;;;;;;;91.38;35.60;;;;;;;;;;5014928;28;20054;-86
2023/03/03 03:56:41;;;;;;;96.75;35.63;;;;;;;;;;5014678;28;20056;-86
2023/03/03 03:59:08;;;;;;;105.15;37.35;;;;;;;;;;5014487;28;20046;-85
2023/03/03 04:01:35;;;;;;;101.75;36.40;;;;;;;;;;5014524;28;20557;-86
2023/03/03 04:04:03;;;;;;;99.53;36.33;;;;;;;;;;5014430;28;20401;-86
2023/03/03 04:06:31;;;;;;;91.53;35.10;;;;;;;;;;5015579;28;20054;-87
2023/03/03 04:08:58;;;;;;;109.53;38.72;;;;;;;;;;5014434;28;20524;-86
2023/03/03 04:11:25;;;;;;;104.40;36.28;;;;;;;;;;5016048;28;20498;-86
2023/03/03 04:13:52;;;;;;;102.35;36.50;;;;;;;;;;5015627;28;20483;-86
2023/03/03 04:16:20;;;;;;;98.22;37.45;;;;;;;;;;5014304;28;20395;-86
2023/03/03 04:18:47;;;;;;;101.72;38.42;;;;;;;;;;5015184;28;20057;-86
2023/03/03 04:21:14;;;;;;;95.53;36.80;;;;;;;;;;5015287;28;20128;-85
2023/03/03 04:23:42;;;;;;;109.45;39.08;;;;;;;;;;5014048;28;20577;-86
2023/03/03 04:26:10;;;;;;;104.63;36.00;;;;;;;;;;5014241;28;20049;-86
2023/03/03 04:28:37;;;;;;;96.25;36.47;;;;;;;;;;5013867;28;20050;-86
2023/03/03 04:31:04;;;;;;;88.60;35.28;;;;;;;;;;5013992;28;20046;-86
2023/03/03 04:33:32;;;;;;;93.55;35.38;;;;;;;;;;5013703;28;20506;-86
2023/03/03 04:35:59;;;;;;;90.55;34.33;;;;;;;;;;5013748;28;20052;-86
2023/03/03 04:38:26;;;;;;;90.18;35.33;;;;;;;;;;5014041;28;20053;-86
2023/03/03 04:40:53;;;;;;;95.32;35.20;;;;;;;;;;5013812;28;20418;-86
2023/03/03 04:43:21;;;;;;;95.55;34.60;;;;;;;;;;5013620;28;20072;-86
2023/03/03 04:45:48;;;;;;;93.05;34.50;;;;;;;;;;5013534;28;20085;-86
2023/03/03 04:48:15;;;;;;;92.15;35.40;;;;;;;;;;5013372;28;20058;-86
2023/03/03 04:50:42;;;;;;;88.38;35.88;;;;;;;;;;5014637;28;20056;-86
2023/03/03 04:53:10;;;;;;;92.07;34.50;;;;;;;;;;5013572;28;20501;-85
2023/03/03 04:55:37;;;;;;;96.80;36.28;;;;;;;;;;5013573;28;20140;-86
2023/03/03 04:58:05;;;;;;;98.90;36.63;;;;;;;;;;5013689;28;20133;-87
2023/03/03 05:00:32;;;;;;;94.07;34.70;;;;;;;;;;5013439;28;20069;-86
2023/03/03 05:03:00;;;;;;;99.95;34.63;;;;;;;;;;5013580;28;20046;-86
2023/03/03 05:05:27;;;;;;;95.72;34.53;;;;;;;;;;5013676;28;20509;-86
2023/03/03 05:07:54;;;;;;;101.72;37.03;;;;;;;;;;5014091;28;20154;-86
2023/03/03 05:10:22;;;;;;;96.35;36.08;;;;;;;;;;5013322;28;20076;-86
2023/03/03 05:12:49;;;;;;;91.40;36.22;;;;;;;;;;5014220;28;20054;-86
2023/03/03 05:15:16;;;;;;;100.40;34.92;;;;;;;;;;5013157;28;20513;-86
2023/03/03 05:17:43;;;;;;;92.78;35.15;;;;;;;;;;5013044;28;20072;-86
2023/03/03 05:20:11;;;;;;;95.97;35.92;;;;;;;;;;5013155;28;20418;-86
2023/03/03 05:22:41;;;;;;;103.38;37.20;;;;;;;;;;5013187;28;20056;-87
2023/03/03 05:25:10;;;;;;;103.28;38.25;;;;;;;;;;5013055;28;20050;-87
2023/03/03 05:27:37;;;;;;;105.20;37.72;;;;;;;;;;5013018;28;20494;-85
2023/03/03 05:30:04;;;;;;;91.38;36.13;;;;;;;;;;5016046;28;20050;-86
2023/03/03 05:32:32;;;;;;;97.47;35.22;;;;;;;;;;5013038;28;20049;-85
2023/03/03 05:34:59;;;;;;;100.50;36.53;;;;;;;;;;5013837;28;20137;-86
2023/03/03 05:37:26;;;;;;;97.18;35.47;;;;;;;;;;5013930;28;20413;-86
2023/03/03 05:39:53;;;;;;;98.25;35.60;;;;;;;;;;5012939;28;20514;-87
2023/03/03 05:42:20;;;;;;;106.18;36.38;;;;;;;;;;5012987;28;20056;-86
2023/03/03 05:44:48;;;;;;;101.07;34.58;;;;;;;;;;5012774;28;20060;-87
2023/03/03 05:47:15;;;;;;;104.95;35.42;;;;;;;;;;5012824;28;20046;-87
2023/03/03 05:49:42;;;;;;;107.55;36.65;;;;;;;;;;5012662;28;20046;-86
2023/03/03 05:52:09;;;;;;;107.93;36.30;;;;;;;;;;5013794;28;20061;-86
2023/03/03 05:54:36;;;;;;;97.22;34.60;;;;;;;;;;5012714;28;20048;-86
2023/03/03 05:57:04;;;;;;;111.20;35.80;;;;;;;;;;5013821;28;20050;-86
2023/03/03 05:59:31;;;;;;;108.47;34.63;;;;;;;;;;5013415;28;20084;-86
2023/03/03 06:01:58;;;;;;;105.68;35.92;;;;;;;;;;5017959;28;20136;-87
2023/03/03 06:04:25;;;;;;;109.55;34.05;;;;;;;;;;5016879;28;20042;-86
2023/03/03 06:06:53;;;;;;;111.97;36.25;;;;;;;;;;5017722;28;20054;-87
2023/03/03 06:09:23;;;;;;;105.82;35.28;;;;;;;;;;5016431;28;20524;-86
2023/03/03 06:11:52;;;;;;;103.90;35.30;;;;;;;;;;5016680;28;20096;-87
2023/03/03 06:14:20;;;;;;;113.28;38.03;;;;;;;;;;5016679;28;20049;-87
2023/03/03 06:16:47;;;;;;;118.90;36.63;;;;;;;;;;5017837;28;20417;-87
2023/03/03 06:19:15;;;;;;;108.32;36.78;;;;;;;;;;5017500;28;20058;-86
2023/03/03 06:21:42;;;;;;;109.05;36.88;;;;;;;;;;5016392;28;20060;-87
2023/03/03 06:24:09;;;;;;;101.63;33.72;;;;;;;;;;5016398;28;20057;-86
2023/03/03 06:26:37;;;;;;;101.00;34.25;;;;;;;;;;5017442;28;20054;-87
2023/03/03 06:29:04;;;;;;;110.53;34.28;;;;;;;;;;5017673;28;20136;-87
2023/03/03 06:31:31;;;;;;;94.20;32.25;;;;;;;;;;5017525;28;20041;-87
2023/03/03 06:33:58;;;;;;;101.47;33.35;;;;;;;;;;5016319;28;20088;-87
2023/03/03 06:36:26;;;;;;;100.80;33.58;;;;;;;;;;5016588;28;20046;-87
2023/03/03 06:38:53;;;;;;;121.47;44.10;;;;;;;;;;5017460;28;20413;-87
2023/03/03 06:41:20;;;;;;;107.60;36.00;;;;;;;;;;5016366;28;20050;-87
2023/03/03 06:43:47;;;;;;;105.88;36.53;;;;;;;;;;5016621;28;20057;-87
2023/03/03 06:46:16;;;;;;;96.68;32.75;;;;;;;;;;5016317;28;20133;-87
2023/03/03 06:48:43;;;;;;;94.13;32.58;;;;;;;;;;5016052;28;20084;-86
2023/03/03 06:51:34;;;;;;;107.70;36.45;;;;;;;;;;5016228;28;20124;-87
2023/03/03 06:54:02;;;;;;;248.90;95.10;;;;;;;;;;5012240;28;20140;-87
2023/03/03 06:56:30;;;;;;;173.60;64.60;;;;;;;;;;5016155;28;20049;-87
2023/03/03 06:58:58;;;;;;;131.73;48.92;;;;;;;;;;5016280;28;20046;-87
2023/03/03 07:01:27;;;;;;;231.35;96.45;;;;;;;;;;5016982;28;20516;-87
2023/03/03 07:03:54;;;;;;;296.65;116.55;;;;;;;;;;5015733;28;20046;-87
2023/03/03 07:06:23;;;;;;;171.02;66.97;;;;;;;;;;5016954;28;20054;-87
2023/03/03 07:08:51;;;;;;;90.82;32.08;;;;;;;;;;5016525;28;20042;-87
2023/03/03 07:11:20;;;;;;;91.05;30.85;;;;;;;;;;5016672;28;20053;-87
2023/03/03 07:13:49;;;;;;;127.45;51.10;;;;;;;;;;5015688;28;20061;-87
2023/03/03 07:16:17;;;;;;;172.90;73.18;;;;;;;;;;5015478;28;20096;-87
2023/03/03 07:18:54;;;;;;;133.73;59.58;;;;;;;;;;5016501;28;20461;-87
2023/03/03 07:21:24;;;;;;;259.23;142.88;;;;;;;;;;5015471;28;20065;-87
2023/03/03 07:23:52;;;;;;;202.25;102.60;;;;;;;;;;5015359;28;20046;-87
2023/03/03 07:26:22;;;;;;;299.52;161.75;;;;;;;;;;5015477;28;20046;-87
2023/03/03 07:28:54;;;;;;;67.25;26.17;;;;;;;;;;5016436;28;20045;-87
2023/03/03 07:31:30;;;;;;;73.97;26.85;;;;;;;;;;5015475;28;20176;-87
2023/03/03 07:33:58;;;;;;;75.18;25.65;;;;;;;;;;5015369;28;20485;-87
2023/03/03 07:36:35;;;;;;;74.97;30.25;;;;;;;;;;5015328;28;20054;-87
2023/03/03 07:39:11;;;;;;;75.07;28.40;;;;;;;;;;5015254;28;20050;-87
2023/03/03 07:41:39;;;;;;;75.00;27.90;;;;;;;;;;5015079;28;20486;-87
2023/03/03 07:44:18;;;;;;;67.72;27.45;;;;;;;;;;5015172;28;20418;-87
2023/03/03 07:46:50;;;;;;;76.28;27.70;;;;;;;;;;5015148;28;20486;-87
2023/03/03 07:49:31;;;;;;;80.00;29.80;;;;;;;;;;5015211;28;20056;-87
2023/03/03 07:51:59;;;;;;;62.75;25.73;;;;;;;;;;5015011;28;20161;-87
2023/03/03 07:54:29;;;;;;;68.80;27.38;;;;;;;;;;5015929;28;20416;-88
2023/03/03 07:57:06;;;;;;;64.72;25.27;;;;;;;;;;5014875;28;20132;-87
2023/03/03 07:59:34;;;;;;;68.10;24.35;;;;;;;;;;5015251;28;20054;-88
2023/03/03 08:02:02;;;;;;;56.53;24.48;;;;;;;;;;5015004;28;20108;-87
2023/03/03 08:04:40;;;;;;;58.15;23.08;;;;;;;;;;5014969;28;20508;-88
2023/03/03 08:07:15;;;;;;;60.08;23.48;;;;;;;;;;5016342;28;20062;-88
2023/03/03 08:09:44;;;;;;;52.95;22.50;;;;;;;;;;5014759;28;20054;-88
2023/03/03 08:12:14;;;;;;;54.95;23.40;;;;;;;;;;5015904;28;20467;-88
2023/03/03 08:14:41;;;;;;;56.17;23.58;;;;;;;;;;5015042;28;20056;-88
2023/03/03 08:17:15;;;;;;;58.38;23.20;;;;;;;;;;5014474;28;20042;-88
2023/03/03 08:19:42;;;;;;;52.00;21.90;;;;;;;;;;5015742;28;20053;-88
2023/03/03 08:22:24;;;;;;;46.63;20.75;;;;;;;;;;5013941;28;20053;-87
2023/03/03 08:24:53;;;;;;;;;;;;;;;;;;5015105;28;20042;-88
2023/03/03 08:27:21;;;;;;;42.65;20.05;;;;;;;;;;5015880;28;20007;-87
2023/03/03 08:29:49;;;;;;;44.63;19.08;;;;;;;;;;5014730;28;20072;-87
2023/03/03 08:32:16;;;;;;;37.90;18.05;;;;;;;;;;5014836;28;20132;-88
2023/03/03 08:34:43;;;;;;;40.85;18.13;;;;;;;;;;5017756;28;20109;-87
2023/03/03 08:37:11;;;;;;;80.07;32.70;;;;;;;;;;5014565;28;20474;-88
2023/03/03 08:39:38;;;;;;;48.78;22.98;;;;;;;;;;5014700;28;20092;-87
2023/03/03 08:42:06;;;;;;;45.03;21.13;;;;;;;;;;5014335;28;20042;-88
2023/03/03 08:44:33;;;;;;;46.00;18.35;;;;;;;;;;5013880;28;20046;-88
2023/03/03 08:47:00;;;;;;;44.28;20.98;;;;;;;;;;5015100;28;20486;-87
2023/03/03 08:49:27;;;;;;;51.03;25.08;;;;;;;;;;5014980;28;20128;-87
2023/03/03 08:51:55;;;;;;;44.50;19.63;;;;;;;;;;5014775;28;20048;-87
2023/03/03 08:54:23;;;;;;;45.42;19.55;;;;;;;;;;5013842;28;20054;-88
2023/03/03 08:56:50;;;;;;;41.25;19.55;;;;;;;;;;5013854;28;20133;-88
2023/03/03 08:59:19;;;;;;;41.95;17.60;;;;;;;;;;5014987;28;20056;-87
2023/03/03 09:01:46;;;;;;;43.17;18.65;;;;;;;;;;5014559;28;20425;-88
2023/03/03 09:04:13;;;;;;;51.90;23.30;;;;;;;;;;5013601;28;20053;-87
2023/03/03 09:06:40;;;;;;;44.80;21.35;;;;;;;;;;5014472;28;20092;-88
2023/03/03 09:09:08;;;;;;;41.58;18.02;;;;;;;;;;5014486;28;20062;-87
2023/03/03 09:11:35;;;;;;;45.42;19.38;;;;;;;;;;5013513;28;20057;-88
2023/03/03 09:14:07;;;;;;;41.83;19.08;;;;;;;;;;5013593;28;20129;-87
2023/03/03 09:16:37;;;;;;;45.65;20.08;;;;;;;;;;5013615;28;20474;-88
2023/03/03 09:19:23;;;;;;;40.38;19.30;;;;;;;;;;5013724;28;20125;-87
2023/03/03 09:21:53;;;;;;;44.58;19.17;;;;;;;;;;5014493;28;20549;-87
2023/03/03 09:24:25;;;;;;;42.85;18.75;;;;;;;;;;5013725;28;20053;-88
2023/03/03 09:26:52;;;;;;;44.15;20.52;;;;;;;;;;5014324;28;20045;-88
2023/03/03 09:29:26;;;;;;;42.28;19.00;;;;;;;;;;5013457;28;20056;-87
2023/03/03 09:32:01;;;;;;;35.42;17.00;;;;;;;;;;5013485;28;20061;-88
2023/03/03 09:34:42;;;;;;;47.28;20.58;;;;;;;;;;5012485;28;20528;-88
2023/03/03 09:37:16;;;;;;;39.90;18.23;;;;;;;;;;5013464;28;20056;-87
2023/03/03 09:39:43;;;;;;;40.83;18.15;;;;;;;;;;5013238;28;20046;-87
2023/03/03 09:42:17;;;;;;;37.97;18.88;;;;;;;;;;5014053;28;20083;-87
2023/03/03 09:44:56;;;;;;;41.35;19.58;;;;;;;;;;5014415;28;20042;-87
2023/03/03 09:47:43;;;;;;;38.88;16.88;;;;;;;;;;5013284;28;20131;-87
2023/03/03 09:50:22;;;;;;;62.67;29.02;;;;;;;;;;5013194;28;20104;-87
2023/03/03 09:53:02;;;;;;;43.35;20.98;;;;;;;;;;5013176;28;20092;-87
2023/03/03 09:55:29;;;;;;;33.97;17.25;;;;;;;;;;5012969;28;20514;-87
2023/03/03 09:58:05;;;;;;;33.35;17.75;;;;;;;;;;5013109;28;20459;-87
2023/03/03 10:01:03;;;;;;;38.17;17.95;;;;;;;;;;5013795;28;20080;-87
2023/03/03 10:03:37;;;;;;;32.97;17.05;;;;;;;;;;5012699;28;20060;-87
2023/03/03 10:06:09;;;;;;;39.40;18.67;;;;;;;;;;5012734;28;20061;-87
2023/03/03 10:08:36;;;;;;;39.00;18.48;;;;;;;;;;5012731;28;20068;-87
2023/03/03 10:11:22;;;;;;;40.65;18.55;;;;;;;;;;5012645;28;20557;-87
2023/03/03 10:13:53;;;;;;;33.08;15.63;;;;;;;;;;5012642;28;20053;-86
2023/03/03 10:16:20;;;;;;;41.05;19.45;;;;;;;;;;5012727;28;20049;-87
2023/03/03 10:18:55;;;;;;;43.35;19.67;;;;;;;;;;5013547;28;20568;-87
2023/03/03 10:21:36;;;;;;;40.78;20.48;;;;;;;;;;5012793;28;20085;-87
2023/03/03 10:24:22;;;;;;;38.83;20.05;;;;;;;;;;5012686;28;20050;-86
2023/03/03 10:27:03;;;;;;;42.25;20.88;;;;;;;;;;5013674;28;20045;-86
2023/03/03 10:29:58;;;;;;;36.53;16.67;;;;;;;;;;5012608;28;20156;-86
2023/03/03 10:32:28;;;;;;;45.95;20.42;;;;;;;;;;5012578;28;20132;-87
2023/03/03 10:34:59;;;;;;;44.15;20.67;;;;;;;;;;5012678;28;20049;-86
2023/03/03 10:37:45;;;;;;;32.63;15.80;;;;;;;;;;5013491;28;20077;-87
2023/03/03 10:40:28;;;;;;;29.73;15.00;;;;;;;;;;5012393;28;20073;-87
2023/03/03 10:42:56;;;;;;;;;;;;;;;;;;5012738;28;20046;-87
2023/03/03 10:45:49;;;;;;;58.63;23.08;;;;;;;;;;5012801;28;20296;-86
2023/03/03 10:48:29;;;;;;;53.30;22.55;;;;;;;;;;5015422;28;20057;-87
2023/03/03 10:51:07;;;;;;;29.83;15.40;;;;;;;;;;5017083;28;20092;-87
2023/03/03 10:53:40;;;;;;;28.05;13.93;;;;;;;;;;5016048;28;20046;-87
2023/03/03 10:56:14;;;;;;;35.35;14.57;;;;;;;;;;5015997;28;20052;-87
2023/03/03 10:58:50;;;;;;;32.17;14.50;;;;;;;;;;5015855;28;20050;-86
2023/03/03 11:01:31;;;;;;;28.23;13.80;;;;;;;;;;5016893;28;20473;-86
2023/03/03 11:04:04;;;;;;;31.25;19.08;;;;;;;;;;5016160;28;20057;-87
2023/03/03 11:06:43;;;;;;;32.75;14.30;;;;;;;;;;5016974;28;20049;-87
2023/03/03 11:09:14;;;;;;;27.60;13.50;;;;;;;;;;5016810;28;20046;-87
2023/03/03 11:12:00;;;;;;;29.25;14.20;;;;;;;;;;5016643;28;20143;-87
2023/03/03 11:15:03;;;;;;;26.90;14.02;;;;;;;;;;5015899;28;20391;-87
2023/03/03 11:17:41;;;;;;;22.02;12.52;;;;;;;;;;4975507;28;20081;-87
2023/03/03 11:20:20;;;;;;;22.98;13.30;;;;;;;;;;5010978;28;20050;-86
2023/03/03 11:22:58;;;;;;;25.25;13.77;;;;;;;;;;5015305;28;20050;-87
2023/03/03 11:25:34;;;;;;;22.10;13.63;;;;;;;;;;5015355;28;20541;-86
2023/03/03 11:28:02;;;;;;;27.38;13.93;;;;;;;;;;5016976;28;20046;-86
2023/03/03 11:30:41;;;;;;;23.38;13.50;;;;;;;;;;5016571;28;20417;-86
2023/03/03 11:33:15;;;;;;;34.40;14.32;;;;;;;;;;5015402;28;20050;-86
2023/03/03 11:36:01;;;;;;;25.88;14.25;;;;;;;;;;5015132;28;20487;-86
2023/03/03 11:38:33;;;;;;;23.65;13.63;;;;;;;;;;5015149;28;20136;-86
2023/03/03 11:41:19;;;;;;;33.50;14.80;;;;;;;;;;5016480;28;20085;-86
2023/03/03 11:43:51;;;;;;;31.85;15.07;;;;;;;;;;5016094;28;20050;-87
2023/03/03 11:46:22;;;;;;;29.98;14.80;;;;;;;;;;5016271;28;20050;-86
2023/03/03 11:48:58;;;;;;;25.10;14.63;;;;;;;;;;5015097;28;20062;-86
2023/03/03 11:51:28;;;;;;;38.97;15.82;;;;;;;;;;5016063;28;20053;-87
2023/03/03 11:53:55;;;;;;;37.95;17.02;;;;;;;;;;5015993;28;20487;-87
2023/03/03 11:56:40;;;;;;;31.80;15.13;;;;;;;;;;5014748;28;20042;-86
2023/03/03 11:59:25;;;;;;;29.35;14.88;;;;;;;;;;5015574;28;20077;-87
2023/03/03 12:01:55;;;;;;;31.23;13.90;;;;;;;;;;5014478;28;20056;-86
2023/03/03 12:04:33;;;;;;;22.45;13.48;;;;;;;;;;5015862;28;20136;-86
2023/03/03 12:07:10;;;;;;;26.80;13.77;;;;;;;;;;5014747;28;20056;-86
2023/03/03 12:10:02;;;;;;;24.70;13.68;;;;;;;;;;5014630;28;20064;-86
2023/03/03 12:12:38;;;;;;;21.85;13.88;;;;;;;;;;5014742;28;20057;-87
2023/03/03 12:15:14;;;;;;;32.75;14.05;;;;;;;;;;5015923;28;20056;-86
2023/03/03 12:17:51;;;;;;;23.35;12.95;;;;;;;;;;5014466;28;20104;-86
2023/03/03 12:20:21;;;;;;;24.13;13.70;;;;;;;;;;5015509;28;20129;-86
2023/03/03 12:22:51;;;;;;;20.10;11.77;;;;;;;;;;5014185;28;20060;-86
2023/03/03 12:25:56;;;;;;;22.38;12.95;;;;;;;;;;5014468;28;20042;-85
2023/03/03 12:28:27;;;;;;;26.15;12.77;;;;;;;;;;5013968;28;20050;-86
2023/03/03 12:31:03;;;;;;;19.30;11.00;;;;;;;;;;5015134;28;20054;-86
2023/03/03 12:33:30;;;;;;;19.73;11.05;;;;;;;;;;5015003;28;20062;-86
2023/03/03 12:36:09;;;;;;;20.90;10.88;;;;;;;;;;5014167;28;20056;-87
2023/03/03 12:38:48;;;;;;;18.88;11.20;;;;;;;;;;5013858;28;20061;-86
2023/03/03 12:41:16;;;;;;;17.60;10.70;;;;;;;;;;5014832;28;20501;-86
2023/03/03 12:43:49;;;;;;;12.93;8.65;;;;;;;;;;5014953;28;20195;-87
2023/03/03 12:46:40;;;;;;;18.58;9.70;;;;;;;;;;5014906;28;20046;-86
2023/03/03 12:49:07;;;;;;;14.82;8.85;;;;;;;;;;5013699;28;20471;-86
2023/03/03 12:51:48;;;;;;;24.95;9.65;;;;;;;;;;5013562;28;20056;-86
2023/03/03 12:54:34;;;;;;;16.60;9.82;;;;;;;;;;5015014;28;20046;-86
2023/03/03 12:57:03;;;;;;;19.63;9.80;;;;;;;;;;5013837;28;20049;-86
2023/03/03 12:59:30;;;;;;;44.60;11.45;;;;;;;;;;5013727;28;20053;-86
2023/03/03 13:02:17;;;;;;;19.70;9.32;;;;;;;;;;5014322;28;20049;-86
2023/03/03 13:04:53;;;;;;;15.82;9.80;;;;;;;;;;5013770;28;20046;-86
2023/03/03 13:07:21;;;;;;;14.23;8.82;;;;;;;;;;5014692;28;20054;-86
2023/03/03 13:10:01;;;;;;;13.45;7.78;;;;;;;;;;5013165;28;20451;-85
2023/03/03 13:12:38;;;;;;;21.13;10.20;;;;;;;;;;5014587;28;20505;-86
2023/03/03 13:15:19;;;;;;;30.15;17.13;;;;;;;;;;5013342;28;20048;-87
2023/03/03 13:18:15;;;;;;;21.55;11.60;;;;;;;;;;5013593;28;20057;-86
2023/03/03 13:20:51;;;;;;;14.45;8.00;;;;;;;;;;5014393;28;20056;-86
2023/03/03 13:23:30;;;;;;;10.95;7.25;;;;;;;;;;5013227;28;20046;-86
2023/03/03 13:26:04;;;;;;;16.10;7.93;;;;;;;;;;5013403;28;20104;-86
2023/03/03 13:28:34;;;;;;;19.90;8.95;;;;;;;;;;5013294;28;20112;-86
2023/03/03 13:31:05;;;;;;;26.95;13.38;;;;;;;;;;5013624;28;20038;-86
2023/03/03 13:33:36;;;;;;;13.45;7.80;;;;;;;;;;5013086;28;20046;-86
2023/03/03 13:36:07;;;;;;;14.50;8.73;;;;;;;;;;5014508;28;20495;-86
2023/03/03 13:38:38;;;;;;;12.45;9.00;;;;;;;;;;5013171;28;20490;-86
2023/03/03 13:41:23;;;;;;;28.10;12.05;;;;;;;;;;5014234;28;20054;-86
2023/03/03 13:43:59;;;;;;;23.10;11.60;;;;;;;;;;5014019;28;20054;-86
2023/03/03 13:46:36;;;;;;;38.47;15.93;;;;;;;;;;5012944;28;20134;-86
2023/03/03 13:49:12;;;;;;;208.85;130.68;;;;;;;;;;5014058;28;20050;-86
2023/03/03 13:51:49;;;;;;;57.35;35.50;;;;;;;;;;5012808;28;20056;-87
2023/03/03 13:54:27;;;;;;;15.52;9.73;;;;;;;;;;5012922;28;20057;-86
2023/03/03 13:57:07;;;;;;;10.27;7.43;;;;;;;;;;5013145;28;20133;-86
2023/03/03 13:59:45;;;;;;;13.05;7.90;;;;;;;;;;5013861;28;20056;-86
2023/03/03 14:02:28;;;;;;;12.48;7.70;;;;;;;;;;5012764;28;20064;-86
2023/03/03 14:05:03;;;;;;;96.55;54.83;;;;;;;;;;5014074;28;20104;-87
2023/03/03 14:07:36;;;;;;;97.47;59.53;;;;;;;;;;5012578;28;20057;-86
2023/03/03 14:10:18;;;;;;;86.88;56.30;;;;;;;;;;5012665;28;20056;-86
2023/03/03 14:13:02;;;;;;;29.15;18.15;;;;;;;;;;5012529;28;20409;-86
2023/03/03 14:15:32;;;;;;;41.08;22.50;;;;;;;;;;5012656;28;20128;-86
2023/03/03 14:18:11;;;;;;;68.30;30.00;;;;;;;;;;5013768;28;20077;-86
2023/03/03 14:20:40;;;;;;;67.40;33.17;;;;;;;;;;5013638;28;20064;-86
2023/03/03 14:23:16;;;;;;;27.67;10.77;;;;;;;;;;5017380;28;20056;-86
2023/03/03 14:25:53;;;;;;;37.72;13.70;;;;;;;;;;5016509;28;20410;-86
2023/03/03 14:28:22;;;;;;;17.38;8.25;;;;;;;;;;5017560;28;20069;-86
2023/03/03 14:30:52;;;;;;;45.90;20.45;;;;;;;;;;5017461;28;20054;-86
2023/03/03 14:33:21;;;;;;;21.50;10.10;;;;;;;;;;5017316;28;20141;-86
2023/03/03 14:35:48;;;;;;;13.27;10.15;;;;;;;;;;5016119;28;20054;-87
2023/03/03 14:38:18;;;;;;;33.92;18.75;;;;;;;;;;5016175;28;20045;-86
2023/03/03 14:40:46;;;;;;;34.60;17.50;;;;;;;;;;5015976;28;20494;-86